createdAt,value
2023-01-22T00:02:01.054Z,8.6
2023-01-22T00:07:01.264Z,8.0
2023-01-22T00:12:01.083Z,8.1
2023-01-22T00:17:01.160Z,8.9
2023-01-22T00:22:06.070Z,9.1
2023-01-22T00:27:06.082Z,9.2
2023-01-22T00:32:01.148Z,9.4
2023-01-22T00:37:01.084Z,9.6
2023-01-22T00:42:01.112Z,9.2
2023-01-22T00:47:01.512Z,9.1
2023-01-22T00:57:01.192Z,8.3
2023-01-22T01:02:01.109Z,8.8
2023-01-22T01:07:01.084Z,8.3
2023-01-22T01:12:01.070Z,8.2
2023-01-22T01:17:01.261Z,9.0
2023-01-22T01:22:01.087Z,11.2
2023-01-22T01:27:01.115Z,10.8
2023-01-22T01:32:01.152Z,12.6
2023-01-22T01:37:01.209Z,14.0
2023-01-22T01:42:06.092Z,13.6
2023-01-22T01:52:01.119Z,14.2
2023-01-22T01:57:01.203Z,13.7
2023-01-22T02:02:01.118Z,14.7
2023-01-22T02:07:01.088Z,15.6
2023-01-22T02:12:01.068Z,14.4
2023-01-22T02:17:01.184Z,13.8
2023-01-22T02:22:06.061Z,13.9
2023-01-22T02:27:01.047Z,13.2
2023-01-22T02:32:01.049Z,12.3
2023-01-22T02:37:01.216Z,12.8
2023-01-22T02:42:01.054Z,13.9
2023-01-22T02:47:01.053Z,14.1
2023-01-22T02:52:01.065Z,13.8
2023-01-22T02:57:01.371Z,14.4
2023-01-22T03:02:02.221Z,15.1
2023-01-22T03:07:01.091Z,14.0
2023-01-22T03:12:01.075Z,14.2
2023-01-22T03:17:01.190Z,14.1
2023-01-22T03:22:06.069Z,14.9
2023-01-22T03:27:06.067Z,13.7
2023-01-22T03:32:01.154Z,14.2
2023-01-22T03:37:01.203Z,13.2
2023-01-22T03:42:06.104Z,13.5
2023-01-22T03:47:01.086Z,12.4
2023-01-22T03:52:01.080Z,12.3
2023-01-22T03:57:01.218Z,12.6
2023-01-22T04:02:01.134Z,12.8
2023-01-22T04:07:01.924Z,13.2
2023-01-22T04:12:01.116Z,15.4
2023-01-22T04:17:01.187Z,18.4
2023-01-22T04:22:01.081Z,20.3
2023-01-22T04:27:01.049Z,20.8
2023-01-22T04:32:06.171Z,21.8
2023-01-22T04:37:01.064Z,19.8
2023-01-22T04:42:01.259Z,17.0
2023-01-22T04:47:01.061Z,16.0
2023-01-22T04:52:01.186Z,17.8
2023-01-22T04:57:01.065Z,16.4
2023-01-22T05:02:01.087Z,17.7
2023-01-22T05:07:06.179Z,18.8
2023-01-22T05:12:01.059Z,19.7
2023-01-22T05:17:06.062Z,18.8
2023-01-22T05:22:06.058Z,19.2
2023-01-22T05:27:01.175Z,18.7
2023-01-22T05:32:01.141Z,18.8
2023-01-22T05:42:06.285Z,18.6
2023-01-22T05:47:01.062Z,19.3
2023-01-22T05:52:06.060Z,20.3
2023-01-22T05:57:01.091Z,19.2
2023-01-22T06:02:01.181Z,18.2
2023-01-22T06:07:01.074Z,18.8
2023-01-22T06:12:01.063Z,18.4
2023-01-22T06:17:01.096Z,18.2
2023-01-22T06:22:01.181Z,19.2
2023-01-22T06:27:06.066Z,22.6
2023-01-22T06:32:06.080Z,23.8
2023-01-22T06:37:06.190Z,27.0
2023-01-22T06:42:01.285Z,29.0
2023-01-22T06:47:01.074Z,30.7
2023-01-22T06:53:06.419Z,28.0
2023-01-22T06:58:01.053Z,25.8
2023-01-22T07:03:01.056Z,23.4
2023-01-22T07:08:01.254Z,21.5
2023-01-22T07:13:01.183Z,20.1
2023-01-22T07:18:06.062Z,19.7
2023-01-22T07:23:06.984Z,19.3
2023-01-22T07:28:01.194Z,19.6
2023-01-22T07:33:06.194Z,19.5
2023-01-22T07:38:06.111Z,21.2
2023-01-22T07:43:01.068Z,19.8
2023-01-22T07:48:06.066Z,21.5
2023-01-22T07:58:01.206Z,22.4
2023-01-22T08:03:01.068Z,21.9
2023-01-22T08:08:01.156Z,24.0
2023-01-22T08:13:01.079Z,25.2
2023-01-22T08:18:01.185Z,25.4
2023-01-22T08:23:01.560Z,24.9
2023-01-22T08:28:06.788Z,24.2
2023-01-22T08:33:01.093Z,23.9
2023-01-22T08:38:01.212Z,22.0
2023-01-22T08:43:01.054Z,20.6
2023-01-22T08:48:06.052Z,20.0
2023-01-22T08:53:06.174Z,19.9
2023-01-22T08:58:01.062Z,19.8
2023-01-22T09:03:06.092Z,21.0
2023-01-22T09:08:01.079Z,23.7
2023-01-22T09:13:06.197Z,24.6
2023-01-22T09:18:01.066Z,26.8
2023-01-22T09:23:02.163Z,30.2
2023-01-22T09:28:01.086Z,28.9
2023-01-22T09:33:01.181Z,29.0
2023-01-22T09:38:06.065Z,27.9
2023-01-22T09:43:01.079Z,27.6
2023-01-22T09:48:01.270Z,24.8
2023-01-22T09:53:06.250Z,27.0
2023-01-22T09:58:01.055Z,27.2
2023-01-22T10:03:01.077Z,28.6
2023-01-22T10:08:01.064Z,27.8
2023-01-22T10:13:01.217Z,29.4
2023-01-22T10:18:01.056Z,29.3
2023-01-22T10:23:15.370Z,30.5
2023-01-22T10:28:06.192Z,32.1
2023-01-22T10:33:01.062Z,35.0
2023-01-22T10:38:01.175Z,37.4
2023-01-22T10:43:06.070Z,38.5
2023-01-22T10:48:01.183Z,40.4
2023-01-22T10:53:01.072Z,43.8
2023-01-22T10:58:01.216Z,43.0
2023-01-22T11:03:01.055Z,42.0
2023-01-22T11:08:01.199Z,42.8
2023-01-22T11:13:01.058Z,38.6
2023-01-22T11:18:01.061Z,38.3
2023-01-22T11:23:01.079Z,38.7
2023-01-22T11:28:01.216Z,39.2
2023-01-22T11:33:01.066Z,41.4
2023-01-22T11:38:06.064Z,43.9
2023-01-22T11:43:01.065Z,41.8
2023-01-22T11:48:01.189Z,41.4
2023-01-22T11:53:01.182Z,42.2
2023-01-22T11:58:01.055Z,40.6
2023-01-22T12:03:01.120Z,40.1
2023-01-22T12:08:06.222Z,40.6
2023-01-22T12:13:01.062Z,41.3
2023-01-22T12:18:01.064Z,38.2
2023-01-22T12:23:01.085Z,38.5
2023-01-22T12:28:01.196Z,39.4
2023-01-22T12:33:02.703Z,43.0
2023-01-22T12:38:01.105Z,46.9
2023-01-22T12:43:01.051Z,51.8
2023-01-22T12:48:01.174Z,63.8
2023-01-22T12:53:01.764Z,73.5
2023-01-22T12:58:01.055Z,107.3
2023-01-22T13:03:01.219Z,103.6
2023-01-22T13:08:01.193Z,102.1
2023-01-22T13:13:01.067Z,89.1
2023-01-22T13:18:06.995Z,80.2
2023-01-22T13:23:01.075Z,44.8
2023-01-22T13:28:06.202Z,44.4
2023-01-22T13:33:01.217Z,43.0
2023-01-22T13:38:01.073Z,45.9
2023-01-22T13:43:01.094Z,44.2
2023-01-22T13:48:06.217Z,50.0
2023-01-22T13:53:06.095Z,53.9
2023-01-22T13:58:06.126Z,55.2
2023-01-22T14:03:01.098Z,54.5
2023-01-22T14:08:06.229Z,53.9
2023-01-22T14:13:06.099Z,45.6
2023-01-22T14:18:01.285Z,40.0
2023-01-22T14:23:06.090Z,37.6
2023-01-22T14:28:01.219Z,35.8
2023-01-22T14:33:01.082Z,35.9
2023-01-22T14:38:01.099Z,33.6
2023-01-22T14:43:01.069Z,33.3
2023-01-22T14:48:01.196Z,33.1
2023-01-22T14:53:01.097Z,32.0
2023-01-22T14:58:01.125Z,30.9
2023-01-22T15:03:01.069Z,32.8
2023-01-22T15:08:01.195Z,33.0
2023-01-22T15:13:01.058Z,34.4
2023-01-22T15:18:01.073Z,36.5
2023-01-22T15:23:01.063Z,37.5
2023-01-22T15:28:01.203Z,35.1
2023-01-22T15:33:01.063Z,36.0
2023-01-22T15:38:01.070Z,34.4
2023-01-22T15:43:03.447Z,28.0
2023-01-22T15:48:01.196Z,26.7
2023-01-22T15:54:01.137Z,26.3
2023-01-22T15:59:01.054Z,24.6
2023-01-22T16:04:01.231Z,23.4
2023-01-22T16:09:01.062Z,25.8
2023-01-22T16:14:01.095Z,25.6
2023-01-22T16:19:01.056Z,26.6
2023-01-22T16:24:01.307Z,26.2
2023-01-22T16:29:01.060Z,25.5
2023-01-22T16:34:01.067Z,25.7
2023-01-22T16:39:01.236Z,24.8
2023-01-22T16:44:01.188Z,24.0
2023-01-22T16:49:01.072Z,24.6
2023-01-22T16:54:01.066Z,24.8
2023-01-22T16:59:01.114Z,26.5
2023-01-22T17:04:01.204Z,26.2
2023-01-22T17:09:01.386Z,27.5
2023-01-22T17:15:01.717Z,28.8
2023-01-22T17:20:01.209Z,29.6
2023-01-22T17:25:01.082Z,29.3
2023-01-22T17:30:01.912Z,31.9
2023-01-22T17:35:01.066Z,33.5
2023-01-22T17:40:02.179Z,34.6
2023-01-22T17:45:01.614Z,35.5
2023-01-22T17:50:01.132Z,34.7
2023-01-22T17:55:01.075Z,34.5
2023-01-22T18:00:03.740Z,33.4
2023-01-22T18:05:01.060Z,33.2
2023-01-22T18:10:01.121Z,33.7
2023-01-22T18:15:01.730Z,36.1
2023-01-22T18:20:01.194Z,36.6
2023-01-22T18:25:01.113Z,37.4
2023-01-22T18:30:01.509Z,37.0
2023-01-22T18:35:01.100Z,35.3
2023-01-22T18:40:06.316Z,34.6
2023-01-22T18:45:01.607Z,33.6
2023-01-22T18:50:01.067Z,33.5
2023-01-22T18:55:01.155Z,32.4
2023-01-22T19:00:02.384Z,30.7
2023-01-22T19:05:01.187Z,29.2
2023-01-22T19:10:01.086Z,28.2
2023-01-22T19:15:01.571Z,26.6
2023-01-22T19:20:01.779Z,24.6
2023-01-22T19:25:01.188Z,26.8
2023-01-22T19:30:03.194Z,26.2
2023-01-22T19:35:01.066Z,24.7
2023-01-22T19:40:01.123Z,23.9
2023-01-22T19:45:01.703Z,24.0
2023-01-22T19:50:01.103Z,22.6
2023-01-22T19:55:01.075Z,21.8
2023-01-22T20:00:02.292Z,22.2
2023-01-22T20:05:01.174Z,22.4
2023-01-22T20:10:01.069Z,23.1
2023-01-22T20:15:02.551Z,22.4
2023-01-22T20:20:01.067Z,22.2
2023-01-22T20:25:01.608Z,22.0
2023-01-22T20:30:02.498Z,20.2
2023-01-22T20:35:01.070Z,19.2
2023-01-22T20:40:01.206Z,19.6
2023-01-22T20:45:01.205Z,21.0
2023-01-22T20:55:02.256Z,23.3
2023-01-22T21:00:03.332Z,24.2
2023-01-22T21:05:01.184Z,25.2
2023-01-22T21:10:01.074Z,24.3
2023-01-22T21:15:01.633Z,22.9
2023-01-22T21:20:01.088Z,22.0
2023-01-22T21:25:01.321Z,22.9
2023-01-22T21:30:02.602Z,23.1
2023-01-22T21:35:01.149Z,23.9
2023-01-22T21:40:01.075Z,24.7
2023-01-22T21:45:02.738Z,24.9
2023-01-22T21:50:01.074Z,24.2
2023-01-22T21:55:01.084Z,24.0
2023-01-22T22:00:02.308Z,24.0
2023-01-22T22:05:01.194Z,26.7
2023-01-22T22:10:01.078Z,28.0
2023-01-22T22:15:02.412Z,29.3
2023-01-22T22:25:01.295Z,27.3
2023-01-22T22:30:02.270Z,25.6
2023-01-22T22:35:01.071Z,26.1
2023-01-22T22:40:01.077Z,24.3
2023-01-22T22:45:01.706Z,24.5
2023-01-22T22:50:01.076Z,27.4
2023-01-22T22:55:01.126Z,28.3
2023-01-22T23:00:08.465Z,26.4
2023-01-22T23:05:01.065Z,28.6
2023-01-22T23:10:01.078Z,28.5
2023-01-22T23:15:01.750Z,26.5
2023-01-22T23:20:01.600Z,28.4
2023-01-22T23:25:01.049Z,29.2
2023-01-22T23:30:01.179Z,28.6
2023-01-22T23:35:01.054Z,29.8
2023-01-22T23:40:01.851Z,32.7
2023-01-22T23:45:01.064Z,31.2
2023-01-22T23:50:01.591Z,31.3
2023-01-22T23:55:08.118Z,30.2
